Time;durP1;ratioP1;P1;durP2;ratioP2;P2;SDS_P1;SDS_P2;PMS_P1;PMS_P2;Temp;Humidity;BMP_temperature;BMP_pressure;BME280_temperature;BME280_humidity;BME280_pressure;Samples;Min_cycle;Max_cycle;Signal;HPM_P1;HPM_P2
2022/03/26 00:00:54;;;;;;;35.88;15.10;;;;;;;;;;5086991;28;20117;-64
2022/03/26 00:03:20;;;;;;;29.85;15.40;;;;;;;;;;5098338;27;20183;-64
2022/03/26 00:05:47;;;;;;;33.75;15.45;;;;;;;;;;5105743;28;20086;-64
2022/03/26 00:08:13;;;;;;;33.70;15.88;;;;;;;;;;5092249;27;20267;-64
2022/03/26 00:10:40;;;;;;;30.23;15.10;;;;;;;;;;5101043;27;20524;-64
2022/03/26 00:13:06;;;;;;;32.45;15.88;;;;;;;;;;5099722;28;20122;-64
2022/03/26 00:15:33;;;;;;;34.65;15.60;;;;;;;;;;5092171;27;20084;-64
2022/03/26 00:18:00;;;;;;;34.75;14.93;;;;;;;;;;5072333;28;20057;-64
2022/03/26 00:20:28;;;;;;;29.50;15.38;;;;;;;;;;5110006;27;20494;-64
2022/03/26 00:22:54;;;;;;;30.52;14.07;;;;;;;;;;5101308;27;20147;-64
2022/03/26 00:25:20;;;;;;;37.03;15.95;;;;;;;;;;5102601;28;20131;-64
2022/03/26 00:27:47;;;;;;;33.08;15.90;;;;;;;;;;5093758;27;20131;-64
2022/03/26 00:30:13;;;;;;;37.00;16.08;;;;;;;;;;5106757;28;20196;-64
2022/03/26 00:32:40;;;;;;;36.80;16.02;;;;;;;;;;5085383;28;20060;-63
2022/03/26 00:35:09;;;;;;;32.40;15.07;;;;;;;;;;5090455;28;20921;-64
2022/03/26 00:37:36;;;;;;;39.65;17.33;;;;;;;;;;5095801;28;20527;-64
2022/03/26 00:40:03;;;;;;;30.70;15.43;;;;;;;;;;5106512;28;20135;-64
2022/03/26 00:42:29;;;;;;;35.55;16.27;;;;;;;;;;5095223;28;20056;-64
2022/03/26 00:44:56;;;;;;;31.27;15.43;;;;;;;;;;5100152;27;20052;-64
2022/03/26 00:47:22;;;;;;;35.28;16.20;;;;;;;;;;5102710;28;20551;-64
2022/03/26 00:49:48;;;;;;;37.45;16.98;;;;;;;;;;5086079;27;20148;-64
2022/03/26 00:52:14;;;;;;;34.88;15.15;;;;;;;;;;5106241;28;20060;-64
2022/03/26 00:54:41;;;;;;;36.15;16.85;;;;;;;;;;5096709;28;20597;-64
2022/03/26 00:57:07;;;;;;;40.67;15.88;;;;;;;;;;5097988;27;20190;-64
2022/03/26 00:59:33;;;;;;;37.28;16.70;;;;;;;;;;5104214;28;20051;-64
2022/03/26 01:02:00;;;;;;;34.10;16.50;;;;;;;;;;5092987;27;20139;-64
2022/03/26 01:04:26;;;;;;;41.08;16.65;;;;;;;;;;5104383;27;20057;-62
2022/03/26 01:06:52;;;;;;;30.17;14.68;;;;;;;;;;5082880;28;20152;-63
2022/03/26 01:09:19;;;;;;;37.20;16.30;;;;;;;;;;5099261;28;20147;-63
2022/03/26 01:11:45;;;;;;;32.28;15.25;;;;;;;;;;5106687;27;20067;-63
2022/03/26 01:14:11;;;;;;;37.03;16.25;;;;;;;;;;5091380;27;20140;-63
2022/03/26 01:16:38;;;;;;;36.40;16.20;;;;;;;;;;5102499;27;20867;-64
2022/03/26 01:19:04;;;;;;;36.67;15.82;;;;;;;;;;5099585;28;20072;-63
2022/03/26 01:21:31;;;;;;;31.23;16.13;;;;;;;;;;5095332;27;20408;-64
2022/03/26 01:23:57;;;;;;;31.50;16.13;;;;;;;;;;5092985;28;20060;-64
2022/03/26 01:26:23;;;;;;;35.33;15.68;;;;;;;;;;5104213;27;20059;-64
2022/03/26 01:28:50;;;;;;;33.38;15.35;;;;;;;;;;5097540;28;20048;-64
2022/03/26 01:31:19;;;;;;;34.78;14.75;;;;;;;;;;5096696;27;20110;-64
2022/03/26 01:33:47;;;;;;;34.40;14.60;;;;;;;;;;5104822;28;20052;-64
2022/03/26 01:36:13;;;;;;;38.90;14.88;;;;;;;;;;5092086;27;20054;-64
2022/03/26 01:38:40;;;;;;;42.95;16.65;;;;;;;;;;5102134;27;20529;-64
2022/03/26 01:41:06;;;;;;;30.55;14.35;;;;;;;;;;5081431;28;20107;-64
2022/03/26 01:43:33;;;;;;;29.50;15.18;;;;;;;;;;5096433;28;20872;-63
2022/03/26 01:45:59;;;;;;;35.53;16.30;;;;;;;;;;5091352;27;20573;-64
2022/03/26 01:48:25;;;;;;;27.52;14.23;;;;;;;;;;5104141;27;20110;-64
2022/03/26 01:50:52;;;;;;;37.45;15.45;;;;;;;;;;5097268;28;20147;-64
2022/03/26 01:53:18;;;;;;;30.88;14.48;;;;;;;;;;5096409;27;20059;-64
2022/03/26 01:55:44;;;;;;;37.10;15.55;;;;;;;;;;5103860;28;20059;-64
2022/03/26 01:58:11;;;;;;;30.00;14.50;;;;;;;;;;5085472;27;20429;-64
2022/03/26 02:00:37;;;;;;;35.58;15.27;;;;;;;;;;5101522;27;20061;-64
2022/03/26 02:03:04;;;;;;;32.85;15.68;;;;;;;;;;5098819;28;20151;-64
2022/03/26 02:05:31;;;;;;;36.58;14.88;;;;;;;;;;5094606;28;20147;-65
2022/03/26 02:07:57;;;;;;;29.05;14.48;;;;;;;;;;5104702;28;20055;-64
2022/03/26 02:10:24;;;;;;;31.27;15.50;;;;;;;;;;5090428;28;20079;-66
2022/03/26 02:12:50;;;;;;;31.30;15.07;;;;;;;;;;5108189;27;20092;-65
2022/03/26 02:15:17;;;;;;;32.00;14.75;;;;;;;;;;5087179;27;20080;-66
2022/03/26 02:17:43;;;;;;;32.75;14.57;;;;;;;;;;5067278;28;20868;-65
2022/03/26 02:20:10;;;;;;;33.75;15.38;;;;;;;;;;5103736;28;20972;-65
2022/03/26 02:22:37;;;;;;;33.03;15.32;;;;;;;;;;5094378;28;20058;-65
2022/03/26 02:25:05;;;;;;;30.05;15.05;;;;;;;;;;5098026;27;20506;-65
2022/03/26 02:27:32;;;;;;;33.50;15.50;;;;;;;;;;5102783;28;20696;-64
2022/03/26 02:29:59;;;;;;;34.33;15.88;;;;;;;;;;5090979;27;20095;-64
2022/03/26 02:32:27;;;;;;;34.78;15.85;;;;;;;;;;5100106;27;21096;-65
2022/03/26 02:34:54;;;;;;;39.08;16.40;;;;;;;;;;5107602;27;20051;-65
2022/03/26 02:37:28;;;;;;;37.67;16.02;;;;;;;;;;5094249;27;20094;-66
2022/03/26 02:39:54;;;;;;;33.80;16.33;;;;;;;;;;5103805;28;20087;-65
2022/03/26 02:42:21;;;;;;;36.67;15.65;;;;;;;;;;5092400;28;20142;-65
2022/03/26 02:44:47;;;;;;;37.10;17.13;;;;;;;;;;5099251;27;20060;-65
2022/03/26 02:47:13;;;;;;;34.55;15.63;;;;;;;;;;5099399;28;20589;-65
2022/03/26 02:49:40;;;;;;;30.33;15.60;;;;;;;;;;5078714;27;20080;-65
2022/03/26 02:52:07;;;;;;;36.83;16.23;;;;;;;;;;5103003;28;20147;-65
2022/03/26 02:54:35;;;;;;;40.45;17.73;;;;;;;;;;5093555;28;20591;-65
2022/03/26 02:57:02;;;;;;;40.08;16.92;;;;;;;;;;5098109;27;20056;-65
2022/03/26 02:59:28;;;;;;;39.78;17.60;;;;;;;;;;5100347;28;20082;-65
2022/03/26 03:01:55;;;;;;;42.08;17.40;;;;;;;;;;5089609;28;20059;-65
2022/03/26 03:04:21;;;;;;;37.83;16.90;;;;;;;;;;5102503;28;20139;-65
2022/03/26 03:06:48;;;;;;;43.30;18.23;;;;;;;;;;5088522;28;20060;-65
2022/03/26 03:09:15;;;;;;;36.80;17.52;;;;;;;;;;5096371;27;20076;-65
2022/03/26 03:11:41;;;;;;;45.45;17.50;;;;;;;;;;5103389;28;20062;-65
2022/03/26 03:14:08;;;;;;;41.08;19.20;;;;;;;;;;5101979;28;20543;-65
2022/03/26 03:16:34;;;;;;;43.88;18.05;;;;;;;;;;5094012;28;20138;-65
2022/03/26 03:19:01;;;;;;;43.95;18.17;;;;;;;;;;5098166;27;20486;-65
2022/03/26 03:21:27;;;;;;;39.30;18.13;;;;;;;;;;5100338;28;20079;-65
2022/03/26 03:23:54;;;;;;;41.40;17.50;;;;;;;;;;5074305;27;20057;-65
2022/03/26 03:26:20;;;;;;;43.53;18.75;;;;;;;;;;5103517;27;20044;-65
2022/03/26 03:28:46;;;;;;;39.60;19.08;;;;;;;;;;5094735;28;20058;-64
2022/03/26 03:31:13;;;;;;;46.40;20.55;;;;;;;;;;5096414;27;20135;-63
2022/03/26 03:33:39;;;;;;;44.03;18.88;;;;;;;;;;5101758;28;20140;-64
2022/03/26 03:36:06;;;;;;;49.38;20.38;;;;;;;;;;5092898;27;20048;-64
2022/03/26 03:38:32;;;;;;;50.47;22.05;;;;;;;;;;5105464;27;20477;-63
2022/03/26 03:40:58;;;;;;;45.58;19.30;;;;;;;;;;5085134;28;20052;-63
2022/03/26 03:43:25;;;;;;;45.65;20.77;;;;;;;;;;5103806;28;20533;-63
2022/03/26 03:45:51;;;;;;;48.58;21.42;;;;;;;;;;5094012;27;20059;-64
2022/03/26 03:48:17;;;;;;;48.55;21.25;;;;;;;;;;5105863;27;20060;-64
2022/03/26 03:50:45;;;;;;;51.22;23.10;;;;;;;;;;5097989;28;20059;-64
2022/03/26 03:53:12;;;;;;;43.23;19.60;;;;;;;;;;5099306;27;20159;-63
2022/03/26 03:55:38;;;;;;;47.03;21.52;;;;;;;;;;5105652;28;20578;-63
2022/03/26 03:58:05;;;;;;;49.03;21.50;;;;;;;;;;5078749;27;20056;-63
2022/03/26 04:00:31;;;;;;;52.35;23.08;;;;;;;;;;5104807;27;20135;-64
2022/03/26 04:03:00;;;;;;;48.20;21.77;;;;;;;;;;5100184;28;20048;-64
2022/03/26 04:05:26;;;;;;;50.75;21.50;;;;;;;;;;5097325;27;20048;-64
2022/03/26 04:07:53;;;;;;;52.13;22.05;;;;;;;;;;5106205;28;20044;-63
2022/03/26 04:10:19;;;;;;;57.42;22.02;;;;;;;;;;5094438;28;20060;-64
2022/03/26 04:12:45;;;;;;;50.95;23.30;;;;;;;;;;5104145;27;20066;-64
2022/03/26 04:15:13;;;;;;;51.50;23.70;;;;;;;;;;5096606;28;20139;-64
2022/03/26 04:17:39;;;;;;;53.80;23.15;;;;;;;;;;5095145;27;20056;-64
2022/03/26 04:20:08;;;;;;;55.42;23.58;;;;;;;;;;5107039;28;20055;-63
2022/03/26 04:22:34;;;;;;;;;;;;;;;;;;5097081;28;20048;-64
2022/03/26 04:25:00;;;;;;;54.30;23.60;;;;;;;;;;5099354;28;43726;-64
2022/03/26 04:27:27;;;;;;;54.08;21.45;;;;;;;;;;5103245;28;20134;-63
2022/03/26 04:29:54;;;;;;;55.80;24.15;;;;;;;;;;5093522;27;20148;-64
2022/03/26 04:32:20;;;;;;;58.58;23.35;;;;;;;;;;5093352;27;20052;-63
2022/03/26 04:34:46;;;;;;;53.80;25.17;;;;;;;;;;5102472;27;20061;-63
2022/03/26 04:37:12;;;;;;;57.05;25.10;;;;;;;;;;5100595;28;20139;-63
2022/03/26 04:39:39;;;;;;;59.50;23.85;;;;;;;;;;5094235;27;20044;-63
2022/03/26 04:42:06;;;;;;;57.00;24.98;;;;;;;;;;5092983;28;20067;-64
2022/03/26 04:44:32;;;;;;;60.72;25.20;;;;;;;;;;5103874;27;20056;-63
2022/03/26 04:46:58;;;;;;;56.50;24.63;;;;;;;;;;5098642;28;20175;-63
2022/03/26 04:49:25;;;;;;;53.58;24.38;;;;;;;;;;5096635;28;20062;-64
2022/03/26 04:51:51;;;;;;;60.10;26.38;;;;;;;;;;5092916;27;20084;-64
2022/03/26 04:54:18;;;;;;;55.70;25.23;;;;;;;;;;5104874;28;20056;-64
2022/03/26 04:56:49;;;;;;;58.95;25.08;;;;;;;;;;5097639;28;20056;-63
2022/03/26 04:59:16;;;;;;;63.13;27.38;;;;;;;;;;5097728;27;20051;-63
2022/03/26 05:01:44;;;;;;;59.40;25.30;;;;;;;;;;5104108;28;20746;-64
2022/03/26 05:04:11;;;;;;;62.10;26.35;;;;;;;;;;5090612;27;20406;-64
2022/03/26 05:06:37;;;;;;;64.35;25.27;;;;;;;;;;5081817;28;20509;-63
2022/03/26 05:09:04;;;;;;;60.75;25.75;;;;;;;;;;5099248;27;20151;-64
2022/03/26 05:11:30;;;;;;;62.85;26.13;;;;;;;;;;5102690;28;20529;-64
2022/03/26 05:13:57;;;;;;;63.25;25.90;;;;;;;;;;5104851;27;20056;-64
2022/03/26 05:16:23;;;;;;;61.35;26.65;;;;;;;;;;5093204;28;20549;-64
2022/03/26 05:18:50;;;;;;;61.25;25.38;;;;;;;;;;5100292;27;20502;-64
2022/03/26 05:21:16;;;;;;;61.85;25.60;;;;;;;;;;5097321;28;20060;-64
2022/03/26 05:23:43;;;;;;;61.47;26.35;;;;;;;;;;5100449;28;20139;-63
2022/03/26 05:26:09;;;;;;;68.25;27.38;;;;;;;;;;5088735;27;20171;-64
2022/03/26 05:28:35;;;;;;;62.28;26.75;;;;;;;;;;5088786;28;20147;-64
2022/03/26 05:31:01;;;;;;;59.25;26.05;;;;;;;;;;5098846;28;20135;-63
2022/03/26 05:33:28;;;;;;;60.08;26.50;;;;;;;;;;5095564;27;20048;-63
2022/03/26 05:35:54;;;;;;;66.10;27.92;;;;;;;;;;5104714;28;20079;-63
2022/03/26 05:38:21;;;;;;;63.75;26.88;;;;;;;;;;5087554;28;20121;-63
2022/03/26 05:40:49;;;;;;;62.60;26.77;;;;;;;;;;5084774;28;20056;-64
2022/03/26 05:43:15;;;;;;;61.50;25.77;;;;;;;;;;5096718;27;20079;-63
2022/03/26 05:45:41;;;;;;;63.10;28.40;;;;;;;;;;5104222;28;20075;-64
2022/03/26 05:48:08;;;;;;;59.67;26.63;;;;;;;;;;5089639;27;20144;-63
2022/03/26 05:50:34;;;;;;;57.92;25.75;;;;;;;;;;5094237;28;20082;-63
2022/03/26 05:53:01;;;;;;;65.47;25.73;;;;;;;;;;5098959;27;20190;-64
2022/03/26 05:55:28;;;;;;;62.95;27.02;;;;;;;;;;5085187;28;20181;-64
2022/03/26 05:57:55;;;;;;;59.72;24.80;;;;;;;;;;5067786;28;20067;-63
2022/03/26 06:00:21;;;;;;;61.42;25.75;;;;;;;;;;5104815;27;20091;-64
2022/03/26 06:02:48;;;;;;;58.15;26.27;;;;;;;;;;5096684;28;20083;-63
2022/03/26 06:05:16;;;;;;;61.10;27.40;;;;;;;;;;5096023;27;20053;-63
2022/03/26 06:07:42;;;;;;;60.00;25.65;;;;;;;;;;5104006;28;20586;-63
2022/03/26 06:10:08;;;;;;;55.92;24.42;;;;;;;;;;5108516;27;20080;-63
2022/03/26 06:12:41;;;;;;;63.20;25.33;;;;;;;;;;5094486;27;20061;-64
2022/03/26 06:15:08;;;;;;;56.13;26.30;;;;;;;;;;5088914;28;20056;-64
2022/03/26 06:17:50;;;;;;;56.90;23.15;;;;;;;;;;5091556;27;20059;-65
2022/03/26 06:20:16;;;;;;;51.85;22.65;;;;;;;;;;5075127;28;20068;-65
2022/03/26 06:22:43;;;;;;;54.83;22.48;;;;;;;;;;5101408;27;20900;-65
2022/03/26 06:25:09;;;;;;;59.17;25.58;;;;;;;;;;5098569;28;20056;-65
2022/03/26 06:27:35;;;;;;;60.17;25.90;;;;;;;;;;5093309;27;20506;-65
2022/03/26 06:30:02;;;;;;;52.55;24.02;;;;;;;;;;5089578;28;20148;-64
2022/03/26 06:32:28;;;;;;;60.08;23.65;;;;;;;;;;5077763;28;20628;-65
2022/03/26 06:34:54;;;;;;;57.80;24.80;;;;;;;;;;5098624;27;20151;-65
2022/03/26 06:37:21;;;;;;;57.75;25.27;;;;;;;;;;5100922;28;20048;-65
2022/03/26 06:39:47;;;;;;;56.90;24.35;;;;;;;;;;5090728;27;20926;-65
2022/03/26 06:42:14;;;;;;;54.35;24.55;;;;;;;;;;5104659;28;20572;-64
2022/03/26 06:44:40;;;;;;;56.33;24.75;;;;;;;;;;5094555;28;20048;-64
2022/03/26 06:47:07;;;;;;;54.15;23.38;;;;;;;;;;5088534;27;20064;-65
2022/03/26 06:49:34;;;;;;;53.72;23.52;;;;;;;;;;5095788;28;20147;-64
2022/03/26 06:52:00;;;;;;;56.33;25.20;;;;;;;;;;5091395;27;20052;-65
2022/03/26 06:54:27;;;;;;;53.80;23.35;;;;;;;;;;5102291;27;20463;-64
2022/03/26 06:56:54;;;;;;;57.58;25.05;;;;;;;;;;5096412;28;20056;-64
2022/03/26 06:59:22;;;;;;;63.33;26.23;;;;;;;;;;5095807;27;20139;-65
2022/03/26 07:01:48;;;;;;;60.72;26.45;;;;;;;;;;5104090;28;20556;-65
2022/03/26 07:04:14;;;;;;;68.68;28.25;;;;;;;;;;5077176;27;20053;-64
2022/03/26 07:06:41;;;;;;;61.05;27.05;;;;;;;;;;5080898;28;20143;-64
2022/03/26 07:09:07;;;;;;;68.50;28.70;;;;;;;;;;5096444;27;20910;-65
2022/03/26 07:11:33;;;;;;;63.67;27.73;;;;;;;;;;5104866;28;20437;-65
2022/03/26 07:14:00;;;;;;;68.05;30.00;;;;;;;;;;5093563;27;20092;-65
2022/03/26 07:16:26;;;;;;;66.03;27.30;;;;;;;;;;5106235;27;20083;-65
2022/03/26 07:18:53;;;;;;;65.93;28.73;;;;;;;;;;5100138;28;20067;-65
2022/03/26 07:21:19;;;;;;;69.32;29.15;;;;;;;;;;5097604;27;20433;-64
2022/03/26 07:23:45;;;;;;;68.75;29.20;;;;;;;;;;5092591;28;20060;-64
2022/03/26 07:26:12;;;;;;;69.65;30.33;;;;;;;;;;5107276;28;20148;-65
2022/03/26 07:28:38;;;;;;;74.72;30.73;;;;;;;;;;5097178;28;20147;-65
2022/03/26 07:31:06;;;;;;;73.18;30.58;;;;;;;;;;5099454;28;20056;-65
2022/03/26 07:33:32;;;;;;;71.65;29.73;;;;;;;;;;5105080;28;20141;-64
2022/03/26 07:35:59;;;;;;;72.35;29.70;;;;;;;;;;5093617;27;20506;-65
2022/03/26 07:38:25;;;;;;;67.22;29.63;;;;;;;;;;5097192;27;20506;-65
2022/03/26 07:40:53;;;;;;;72.18;29.98;;;;;;;;;;5101623;27;20148;-65
2022/03/26 07:43:19;;;;;;;70.45;29.95;;;;;;;;;;5093572;28;20606;-65
2022/03/26 07:45:45;;;;;;;68.55;30.13;;;;;;;;;;5106782;28;20139;-65
2022/03/26 07:48:12;;;;;;;67.60;30.27;;;;;;;;;;5094119;27;20063;-65
2022/03/26 07:50:38;;;;;;;73.38;32.45;;;;;;;;;;5104545;27;20041;-65
2022/03/26 07:53:04;;;;;;;72.57;29.95;;;;;;;;;;5099335;28;20514;-65
2022/03/26 07:55:31;;;;;;;74.05;31.23;;;;;;;;;;5096086;27;20198;-64
2022/03/26 07:57:57;;;;;;;69.65;28.75;;;;;;;;;;5106697;28;20531;-64
2022/03/26 08:00:24;;;;;;;66.38;31.10;;;;;;;;;;5095465;28;20213;-65
2022/03/26 08:02:50;;;;;;;76.47;31.95;;;;;;;;;;5101480;27;20063;-64
2022/03/26 08:05:16;;;;;;;67.95;29.83;;;;;;;;;;5102666;28;20147;-64
2022/03/26 08:07:43;;;;;;;72.95;30.65;;;;;;;;;;5094845;27;20155;-65
2022/03/26 08:10:09;;;;;;;72.32;29.17;;;;;;;;;;5107272;28;20044;-65
2022/03/26 08:12:35;;;;;;;71.65;31.48;;;;;;;;;;5089489;28;20059;-65
2022/03/26 08:15:02;;;;;;;65.13;28.65;;;;;;;;;;5102359;27;20056;-65
2022/03/26 08:17:29;;;;;;;69.30;30.20;;;;;;;;;;5095586;27;20499;-65
2022/03/26 08:19:55;;;;;;;68.20;30.27;;;;;;;;;;5106444;28;20140;-65
2022/03/26 08:22:22;;;;;;;70.95;28.90;;;;;;;;;;5094376;28;20139;-65
2022/03/26 08:24:48;;;;;;;73.10;30.98;;;;;;;;;;5101496;27;20554;-65
2022/03/26 08:27:15;;;;;;;77.18;30.58;;;;;;;;;;5101502;28;20151;-65
2022/03/26 08:29:41;;;;;;;79.18;32.55;;;;;;;;;;5080392;27;20049;-65
2022/03/26 08:32:08;;;;;;;68.63;31.33;;;;;;;;;;5105428;28;20059;-65
2022/03/26 08:34:34;;;;;;;77.25;32.35;;;;;;;;;;5095893;28;20056;-65
2022/03/26 08:37:00;;;;;;;75.45;31.95;;;;;;;;;;5099947;27;20057;-65
2022/03/26 08:39:27;;;;;;;81.43;33.65;;;;;;;;;;5103203;28;20056;-65
2022/03/26 08:41:53;;;;;;;80.72;33.35;;;;;;;;;;5092448;27;20588;-65
2022/03/26 08:44:19;;;;;;;77.45;31.45;;;;;;;;;;5106094;27;20140;-64
2022/03/26 08:46:46;;;;;;;72.53;31.23;;;;;;;;;;5089920;28;20165;-64
2022/03/26 08:49:12;;;;;;;71.30;30.42;;;;;;;;;;5097029;28;20078;-64
2022/03/26 08:51:38;;;;;;;78.22;33.05;;;;;;;;;;5104898;28;20141;-64
2022/03/26 08:54:05;;;;;;;75.78;32.38;;;;;;;;;;5093170;27;20135;-64
2022/03/26 08:56:31;;;;;;;76.25;31.13;;;;;;;;;;5103339;27;20111;-64
2022/03/26 08:58:58;;;;;;;75.22;31.85;;;;;;;;;;5098423;28;20072;-64
2022/03/26 09:01:24;;;;;;;75.07;31.70;;;;;;;;;;5096847;27;20060;-64
2022/03/26 09:03:51;;;;;;;73.40;32.28;;;;;;;;;;5075179;28;20053;-64
2022/03/26 09:06:18;;;;;;;73.28;30.85;;;;;;;;;;5104647;27;20053;-64
2022/03/26 09:08:44;;;;;;;77.43;31.38;;;;;;;;;;5096468;28;20062;-64
2022/03/26 09:11:11;;;;;;;72.45;30.70;;;;;;;;;;5098185;27;20143;-64
2022/03/26 09:13:37;;;;;;;82.43;32.40;;;;;;;;;;5098825;28;20147;-64
2022/03/26 09:16:04;;;;;;;78.00;31.88;;;;;;;;;;5104426;28;20149;-64
2022/03/26 09:18:30;;;;;;;79.03;30.75;;;;;;;;;;5094204;28;20060;-64
2022/03/26 09:20:57;;;;;;;75.78;32.50;;;;;;;;;;5094900;27;20131;-64
2022/03/26 09:23:23;;;;;;;82.30;33.08;;;;;;;;;;5096695;27;20052;-64
2022/03/26 09:25:50;;;;;;;73.88;31.88;;;;;;;;;;5088721;28;20106;-64
2022/03/26 09:28:16;;;;;;;79.55;32.33;;;;;;;;;;5075318;28;20083;-65
2022/03/26 09:30:42;;;;;;;79.15;32.90;;;;;;;;;;5100465;27;20159;-64
2022/03/26 09:33:09;;;;;;;80.10;34.25;;;;;;;;;;5098754;28;20098;-63
2022/03/26 09:35:35;;;;;;;77.13;34.67;;;;;;;;;;5094244;27;20398;-64
2022/03/26 09:38:02;;;;;;;77.90;34.70;;;;;;;;;;5077455;28;20136;-64
2022/03/26 09:40:28;;;;;;;83.13;34.67;;;;;;;;;;5103690;27;20053;-65
2022/03/26 09:42:54;;;;;;;80.18;34.72;;;;;;;;;;5097732;28;20135;-65
2022/03/26 09:45:21;;;;;;;75.40;33.58;;;;;;;;;;5095885;27;20056;-65
2022/03/26 09:47:48;;;;;;;80.35;36.10;;;;;;;;;;5105192;28;20083;-65
2022/03/26 09:50:14;;;;;;;75.95;33.72;;;;;;;;;;5091686;27;20087;-65
2022/03/26 09:52:40;;;;;;;81.30;34.75;;;;;;;;;;5101009;27;20139;-65
2022/03/26 09:55:11;;;;;;;71.88;33.55;;;;;;;;;;5098263;28;20182;-65
2022/03/26 09:57:38;;;;;;;74.53;33.05;;;;;;;;;;5093422;27;20482;-65
2022/03/26 10:00:05;;;;;;;74.97;33.15;;;;;;;;;;5105988;28;20139;-65
2022/03/26 10:02:31;;;;;;;72.18;32.03;;;;;;;;;;5093870;28;20147;-65
2022/03/26 10:04:58;;;;;;;70.15;31.08;;;;;;;;;;5098622;28;20137;-65
2022/03/26 10:07:29;;;;;;;68.20;30.23;;;;;;;;;;5101538;28;20484;-65
2022/03/26 10:09:56;;;;;;;73.18;32.22;;;;;;;;;;5091310;27;20056;-65
2022/03/26 10:12:24;;;;;;;66.07;30.23;;;;;;;;;;5077327;27;20191;-65
2022/03/26 10:14:52;;;;;;;70.93;32.15;;;;;;;;;;5099634;27;20842;-65
2022/03/26 10:17:24;;;;;;;71.57;30.70;;;;;;;;;;5088063;28;20045;-65
2022/03/26 10:19:52;;;;;;;68.07;31.48;;;;;;;;;;5104085;28;20091;-65
2022/03/26 10:22:42;;;;;;;71.47;32.90;;;;;;;;;;5088178;28;20054;-65
2022/03/26 10:25:10;;;;;;;72.03;33.65;;;;;;;;;;5096594;28;20056;-64
2022/03/26 10:27:41;;;;;;;68.95;30.85;;;;;;;;;;5088847;27;20157;-65
2022/03/26 10:30:11;;;;;;;70.53;31.67;;;;;;;;;;5099929;28;20522;-65
2022/03/26 10:32:49;;;;;;;76.10;32.85;;;;;;;;;;5101883;27;20079;-65
2022/03/26 10:35:20;;;;;;;66.18;29.92;;;;;;;;;;5096184;27;20059;-65
2022/03/26 10:37:49;;;;;;;68.43;30.65;;;;;;;;;;5104289;28;20054;-65
2022/03/26 10:40:20;;;;;;;72.55;31.70;;;;;;;;;;5072947;28;20094;-65
2022/03/26 10:42:56;;;;;;;67.07;29.80;;;;;;;;;;5100017;27;20053;-65
2022/03/26 10:45:23;;;;;;;61.92;28.08;;;;;;;;;;5086232;28;20135;-65
2022/03/26 10:47:52;;;;;;;56.35;26.33;;;;;;;;;;5104134;28;20131;-66
2022/03/26 10:50:19;;;;;;;58.97;26.67;;;;;;;;;;5091735;28;20131;-65
2022/03/26 10:52:48;;;;;;;57.40;26.77;;;;;;;;;;5099376;27;20166;-66
2022/03/26 10:55:16;;;;;;;53.63;23.95;;;;;;;;;;5099039;28;20048;-66
2022/03/26 10:57:46;;;;;;;53.47;24.45;;;;;;;;;;5091604;27;20202;-67
2022/03/26 11:00:13;;;;;;;53.80;25.27;;;;;;;;;;5104172;28;20151;-65
2022/03/26 11:02:41;;;;;;;58.47;25.10;;;;;;;;;;5088496;28;20072;-66
2022/03/26 11:05:08;;;;;;;56.28;24.90;;;;;;;;;;5096217;27;20053;-65
2022/03/26 11:07:35;;;;;;;56.13;23.88;;;;;;;;;;5102311;28;20055;-65
2022/03/26 11:10:05;;;;;;;52.38;25.38;;;;;;;;;;5088710;27;20056;-65
2022/03/26 11:12:33;;;;;;;61.90;27.23;;;;;;;;;;5091793;28;20092;-65
2022/03/26 11:15:04;;;;;;;58.30;26.07;;;;;;;;;;5097794;27;20512;-66
2022/03/26 11:17:39;;;;;;;52.15;24.63;;;;;;;;;;5073277;28;20414;-65
2022/03/26 11:20:09;;;;;;;61.28;25.17;;;;;;;;;;5074171;28;20103;-65
2022/03/26 11:22:54;;;;;;;58.92;24.42;;;;;;;;;;5100805;27;20140;-66
2022/03/26 11:25:44;;;;;;;46.60;23.02;;;;;;;;;;5099603;28;20561;-66
2022/03/26 11:28:16;;;;;;;49.45;22.10;;;;;;;;;;5090705;27;20175;-65
2022/03/26 11:31:01;;;;;;;50.58;22.48;;;;;;;;;;5100104;27;20144;-65
2022/03/26 11:33:36;;;;;;;56.50;24.15;;;;;;;;;;5101149;28;20573;-65
2022/03/26 11:36:04;;;;;;;50.65;23.60;;;;;;;;;;5082756;27;20136;-66
2022/03/26 11:38:32;;;;;;;58.47;24.77;;;;;;;;;;5101149;27;20147;-65
2022/03/26 11:41:05;;;;;;;55.17;24.10;;;;;;;;;;5096658;28;20171;-66
2022/03/26 11:43:43;;;;;;;52.33;22.73;;;;;;;;;;5092674;27;20151;-66
2022/03/26 11:51:51;;;;;;;44.05;20.23;;;;;;;;;;5091666;27;20183;-66
2022/03/26 11:54:18;;;;;;;47.33;21.10;;;;;;;;;;5074819;28;20150;-66
2022/03/26 11:56:47;;;;;;;42.00;18.17;;;;;;;;;;5101450;27;20151;-65
2022/03/26 11:59:16;;;;;;;38.92;18.73;;;;;;;;;;5101640;28;20059;-65
2022/03/26 12:01:46;;;;;;;42.17;18.77;;;;;;;;;;5093728;27;20151;-65
2022/03/26 12:04:20;;;;;;;40.20;18.33;;;;;;;;;;5105086;28;20103;-66
2022/03/26 12:07:00;;;;;;;39.28;17.45;;;;;;;;;;5097869;28;20052;-66
2022/03/26 12:09:29;;;;;;;47.10;19.17;;;;;;;;;;5093957;27;20049;-65
2022/03/26 12:12:10;;;;;;;41.78;18.48;;;;;;;;;;5104363;28;20486;-65
2022/03/26 12:14:55;;;;;;;36.88;16.33;;;;;;;;;;5096379;28;20055;-65
2022/03/26 12:17:40;;;;;;;34.45;16.50;;;;;;;;;;5084013;28;20103;-65
2022/03/26 12:20:25;;;;;;;28.27;13.15;;;;;;;;;;5105163;28;20146;-65
2022/03/26 12:23:02;;;;;;;29.77;13.68;;;;;;;;;;5097683;28;20056;-65
2022/03/26 12:25:45;;;;;;;29.30;13.18;;;;;;;;;;5096276;27;20040;-66
2022/03/26 12:28:38;;;;;;;28.80;12.73;;;;;;;;;;5077898;28;20094;-65
2022/03/26 12:31:06;;;;;;;24.77;11.13;;;;;;;;;;5098073;28;20210;-66
2022/03/26 12:33:39;;;;;;;28.15;12.63;;;;;;;;;;5103856;28;20494;-66
2022/03/26 12:36:06;;;;;;;29.17;11.63;;;;;;;;;;5092746;27;20049;-66
2022/03/26 12:38:32;;;;;;;26.25;10.82;;;;;;;;;;5104070;27;20605;-65
2022/03/26 12:41:00;;;;;;;27.98;11.75;;;;;;;;;;5098782;28;20056;-65
2022/03/26 12:43:27;;;;;;;25.70;10.55;;;;;;;;;;5095521;27;20091;-65
2022/03/26 12:45:54;;;;;;;24.40;10.82;;;;;;;;;;5106519;28;20470;-65
2022/03/26 12:48:23;;;;;;;24.23;10.83;;;;;;;;;;5093662;28;20059;-65
2022/03/26 12:50:50;;;;;;;33.28;11.85;;;;;;;;;;5101160;27;20299;-66
2022/03/26 12:53:17;;;;;;;29.85;11.13;;;;;;;;;;5100707;28;20044;-66
2022/03/26 12:55:53;;;;;;;20.80;9.50;;;;;;;;;;5094207;27;20049;-65
2022/03/26 13:01:07;;;;;;;23.25;10.15;;;;;;;;;;5089450;27;20140;-65
2022/03/26 13:03:35;;;;;;;21.52;9.70;;;;;;;;;;5098525;28;20139;-67
2022/03/26 13:06:05;;;;;;;24.55;11.02;;;;;;;;;;5091937;27;20055;-65
2022/03/26 13:08:37;;;;;;;36.33;11.02;;;;;;;;;;5102617;27;20858;-65
2022/03/26 13:11:07;;;;;;;22.70;10.73;;;;;;;;;;5097962;28;20139;-65
2022/03/26 13:13:50;;;;;;;23.85;11.18;;;;;;;;;;5092930;28;20155;-64
2022/03/26 13:16:19;;;;;;;29.70;10.70;;;;;;;;;;5076082;28;20580;-65
2022/03/26 13:18:46;;;;;;;27.35;9.50;;;;;;;;;;5101131;27;20044;-65
2022/03/26 13:21:14;;;;;;;25.30;11.33;;;;;;;;;;5097547;27;20546;-65
2022/03/26 13:23:51;;;;;;;28.27;11.53;;;;;;;;;;5104824;28;20506;-65
2022/03/26 13:26:17;;;;;;;33.60;11.90;;;;;;;;;;5076316;28;20094;-65
2022/03/26 13:28:43;;;;;;;27.65;12.05;;;;;;;;;;5101905;27;20139;-65
2022/03/26 13:31:36;;;;;;;31.92;11.30;;;;;;;;;;5100545;28;20153;-65
2022/03/26 13:34:12;;;;;;;22.20;8.55;;;;;;;;;;5090287;27;20056;-69
2022/03/26 13:36:38;;;;;;;19.33;8.07;;;;;;;;;;5081302;28;20052;-68
2022/03/26 13:39:34;;;;;;;23.88;7.95;;;;;;;;;;5098744;27;20052;-66
2022/03/26 13:42:10;;;;;;;20.70;7.60;;;;;;;;;;5099800;27;20040;-66
2022/03/26 13:44:37;;;;;;;23.08;9.25;;;;;;;;;;5094667;28;20098;-66
2022/03/26 13:47:04;;;;;;;21.73;7.78;;;;;;;;;;5098395;27;20143;-66
2022/03/26 13:49:31;;;;;;;20.77;8.05;;;;;;;;;;5102827;28;20985;-65
2022/03/26 13:51:59;;;;;;;24.63;8.70;;;;;;;;;;5084513;28;20065;-66
2022/03/26 13:54:32;;;;;;;22.30;8.53;;;;;;;;;;5103848;27;20516;-66
2022/03/26 13:56:59;;;;;;;31.23;9.85;;;;;;;;;;5097957;28;20054;-67
2022/03/26 13:59:26;;;;;;;23.98;9.82;;;;;;;;;;5094667;27;20512;-65
2022/03/26 14:01:53;;;;;;;23.27;10.07;;;;;;;;;;5104809;28;20121;-66
2022/03/26 14:04:24;;;;;;;33.00;11.75;;;;;;;;;;5091823;28;20082;-66
2022/03/26 14:06:52;;;;;;;27.85;11.52;;;;;;;;;;5099791;27;20589;-66
2022/03/26 14:09:19;;;;;;;36.15;14.32;;;;;;;;;;5078031;28;20088;-66
2022/03/26 14:11:45;;;;;;;35.47;16.13;;;;;;;;;;5100546;28;20060;-68
2022/03/26 14:14:12;;;;;;;31.80;14.20;;;;;;;;;;5089308;28;20059;-65
2022/03/26 14:16:38;;;;;;;39.38;16.90;;;;;;;;;;5102084;27;20135;-66
2022/03/26 14:19:04;;;;;;;37.42;17.45;;;;;;;;;;5091030;27;20063;-65
2022/03/26 14:21:31;;;;;;;39.67;17.98;;;;;;;;;;5093602;27;20143;-65
2022/03/26 14:23:58;;;;;;;34.63;16.53;;;;;;;;;;5104472;28;20662;-65
2022/03/26 14:26:25;;;;;;;34.35;15.65;;;;;;;;;;5086993;28;20225;-65
2022/03/26 14:28:51;;;;;;;36.97;16.65;;;;;;;;;;5099437;27;20139;-65
2022/03/26 14:31:18;;;;;;;35.55;16.70;;;;;;;;;;5099651;28;20506;-65